Rainier, WA

11:07 PM PST on February 11, 2016 (GMT -0800)
Yelm Flying B Airfield | | Change Station
CLOSE
Current Station
Personal Weather Station
Location: Yelm, WA
Elevation: 452 ft
Nearby Weather Stations

Elev 452 ft 46.88 °N, 122.60 °W | Updated 1 minute ago

Rain
Rain
49.1 °F
Feels Like 49 °F
N
2.0
Wind Variable Wind from SE
Gusts 2.0 mph

Today
High -- | Low -- °F
--% Chance of Precip.
Yesterday
High -- | Low -- °F
Precip. -- in
Pressure 30.08 in
Visibility 1.5 miles
Clouds Scattered Clouds 500 ft
Overcast 3900 ft
Windchill 49 °F
Dew Point 49 °F
Humidity 99%
Rainfall 0.27 in
Snow Depth Not available.
7:21 AM 5:28 PM
Waxing Crescent, 18% visible
METAR KOLM 120654Z AUTO 00000KT 1 1/2SM RA BR SCT005 OVC039 10/09 A3007 RMK AO2 SLP184 P0011 T01000094
Pressure 30.08 in
Visibility 1.5 miles
Clouds Scattered Clouds 500 ft
Overcast 3900 ft
Windchill 49 °F
Dew Point 49 °F
Humidity 99%
Rainfall 0.27 in
Snow Depth Not available.
7:21 AM 5:28 PM
Waxing Crescent, 18% visible
METAR KOLM 120654Z AUTO 00000KT 1 1/2SM RA BR SCT005 OVC039 10/09 A3007 RMK AO2 SLP184 P0011 T01000094

10-Day Weather Forecast

Almanac

Astronomy

Feb. 11, 2016 Rise Set
Actual Time
Civil Twilight
Nautical Twilight
Astronomical Twilight
Moon
Length of Visible Light
Length of Day
Tomorrow will be .
, % of the Moon is Illuminated

Today's Extremes

State Highs State Lows

Community

WunderPhotos

Upload Photos

1,892,278 photos uploaded!

WunderBlog® & News

Nearby

Air Quality

  Air Quality AQ Index Pollutant
Not available.

Snow Depth

Station Depth Elevation

Earthquake Activity

City Distance Mag. Time & Date
Minimum magnitude displayed is 2.5.

Coastal Water Temperatures

Place Temperature

Stations

Nearby Weather Stations

Station Location Temp. Windchill Dew Point Humidity Wind Precip. Elev Updated Type
                   

Watches & Warnings

There are currently no watches in effect.